sensor_id;sensor_type;location;lat;lon;timestamp;temperature;humidity
23267;DHT22;11802;53.160;8.214;2023-02-01T00:01:20;6.10;99.90
23267;DHT22;11802;53.160;8.214;2023-02-01T00:03:45;6.20;99.90
23267;DHT22;11802;53.160;8.214;2023-02-01T00:06:11;6.20;99.90
23267;DHT22;11802;53.160;8.214;2023-02-01T00:08:36;6.20;99.90
23267;DHT22;11802;53.160;8.214;2023-02-01T00:11:09;6.20;99.90
23267;DHT22;11802;53.160;8.214;2023-02-01T00:13:36;6.20;99.90
23267;DHT22;11802;53.160;8.214;2023-02-01T00:16:11;6.20;99.90
23267;DHT22;11802;53.160;8.214;2023-02-01T00:18:47;6.20;99.90
23267;DHT22;11802;53.160;8.214;2023-02-01T00:21:18;6.20;99.90
23267;DHT22;11802;53.160;8.214;2023-02-01T00:23:44;6.20;99.90
23267;DHT22;11802;53.160;8.214;2023-02-01T00:26:26;6.20;99.90
23267;DHT22;11802;53.160;8.214;2023-02-01T00:28:53;6.10;99.90
23267;DHT22;11802;53.160;8.214;2023-02-01T00:31:18;6.20;99.90
23267;DHT22;11802;53.160;8.214;2023-02-01T00:33:47;6.20;99.90
23267;DHT22;11802;53.160;8.214;2023-02-01T00:36:12;6.20;99.90
23267;DHT22;11802;53.160;8.214;2023-02-01T00:38:38;6.20;99.90
23267;DHT22;11802;53.160;8.214;2023-02-01T00:41:15;6.10;99.90
23267;DHT22;11802;53.160;8.214;2023-02-01T00:43:42;6.20;99.90
23267;DHT22;11802;53.160;8.214;2023-02-01T00:46:08;6.20;99.90
23267;DHT22;11802;53.160;8.214;2023-02-01T00:48:34;6.10;99.90
23267;DHT22;11802;53.160;8.214;2023-02-01T00:51:00;6.10;99.90
23267;DHT22;11802;53.160;8.214;2023-02-01T00:53:26;6.10;99.90
23267;DHT22;11802;53.160;8.214;2023-02-01T00:55:52;6.10;99.90
23267;DHT22;11802;53.160;8.214;2023-02-01T00:58:17;6.10;99.90
23267;DHT22;11802;53.160;8.214;2023-02-01T01:00:43;6.10;99.90
23267;DHT22;11802;53.160;8.214;2023-02-01T01:03:09;6.10;99.90
23267;DHT22;11802;53.160;8.214;2023-02-01T01:05:45;6.10;99.90
23267;DHT22;11802;53.160;8.214;2023-02-01T01:08:11;6.10;99.90
23267;DHT22;11802;53.160;8.214;2023-02-01T01:10:36;6.10;99.90
23267;DHT22;11802;53.160;8.214;2023-02-01T01:13:02;6.10;99.90
23267;DHT22;11802;53.160;8.214;2023-02-01T01:15:27;6.10;99.90
23267;DHT22;11802;53.160;8.214;2023-02-01T01:17:53;6.10;99.90
23267;DHT22;11802;53.160;8.214;2023-02-01T01:20:19;6.10;99.90
23267;DHT22;11802;53.160;8.214;2023-02-01T01:22:47;6.10;99.90
23267;DHT22;11802;53.160;8.214;2023-02-01T01:25:12;6.10;99.90
23267;DHT22;11802;53.160;8.214;2023-02-01T01:27:38;6.10;99.90
23267;DHT22;11802;53.160;8.214;2023-02-01T01:30:04;6.10;99.90
23267;DHT22;11802;53.160;8.214;2023-02-01T01:32:29;6.20;99.90
23267;DHT22;11802;53.160;8.214;2023-02-01T01:34:55;6.20;99.90
23267;DHT22;11802;53.160;8.214;2023-02-01T01:37:20;6.20;99.90
23267;DHT22;11802;53.160;8.214;2023-02-01T01:39:46;6.20;99.90
23267;DHT22;11802;53.160;8.214;2023-02-01T01:42:11;6.20;99.90
23267;DHT22;11802;53.160;8.214;2023-02-01T01:45:01;6.20;99.90
23267;DHT22;11802;53.160;8.214;2023-02-01T01:47:43;6.20;99.90
23267;DHT22;11802;53.160;8.214;2023-02-01T01:50:13;6.20;99.90
23267;DHT22;11802;53.160;8.214;2023-02-01T01:52:41;6.20;99.90
23267;DHT22;11802;53.160;8.214;2023-02-01T01:55:09;6.20;99.90
23267;DHT22;11802;53.160;8.214;2023-02-01T01:57:40;6.20;99.90
23267;DHT22;11802;53.160;8.214;2023-02-01T02:00:09;6.20;99.90
23267;DHT22;11802;53.160;8.214;2023-02-01T02:02:36;6.20;99.90
23267;DHT22;11802;53.160;8.214;2023-02-01T02:05:02;6.30;99.90
23267;DHT22;11802;53.160;8.214;2023-02-01T02:07:32;6.30;99.90
23267;DHT22;11802;53.160;8.214;2023-02-01T02:09:59;6.30;99.90
23267;DHT22;11802;53.160;8.214;2023-02-01T02:12:25;6.30;99.90
23267;DHT22;11802;53.160;8.214;2023-02-01T02:14:50;6.30;99.90
23267;DHT22;11802;53.160;8.214;2023-02-01T02:17:36;6.30;99.90
23267;DHT22;11802;53.160;8.214;2023-02-01T02:23:18;6.20;99.90
23267;DHT22;11802;53.160;8.214;2023-02-01T02:34:28;6.20;99.90
23267;DHT22;11802;53.160;8.214;2023-02-01T02:42:53;6.20;99.90
23267;DHT22;11802;53.160;8.214;2023-02-01T02:45:47;6.20;99.90
23267;DHT22;11802;53.160;8.214;2023-02-01T02:48:47;6.10;99.90
23267;DHT22;11802;53.160;8.214;2023-02-01T02:51:58;6.20;99.90
23267;DHT22;11802;53.160;8.214;2023-02-01T02:54:38;6.20;99.90
23267;DHT22;11802;53.160;8.214;2023-02-01T02:57:22;6.20;99.90
23267;DHT22;11802;53.160;8.214;2023-02-01T03:00:15;6.20;99.90
23267;DHT22;11802;53.160;8.214;2023-02-01T03:03:00;6.20;99.90
23267;DHT22;11802;53.160;8.214;2023-02-01T03:05:46;6.10;99.90
23267;DHT22;11802;53.160;8.214;2023-02-01T03:08:20;6.20;99.90
23267;DHT22;11802;53.160;8.214;2023-02-01T03:10:56;6.10;99.90
23267;DHT22;11802;53.160;8.214;2023-02-01T03:13:31;6.10;99.90
23267;DHT22;11802;53.160;8.214;2023-02-01T03:16:12;6.00;99.90
23267;DHT22;11802;53.160;8.214;2023-02-01T03:19:00;5.90;99.90
23267;DHT22;11802;53.160;8.214;2023-02-01T03:21:37;5.80;99.90
23267;DHT22;11802;53.160;8.214;2023-02-01T03:24:20;5.70;99.90
23267;DHT22;11802;53.160;8.214;2023-02-01T03:26:55;5.80;99.90
23267;DHT22;11802;53.160;8.214;2023-02-01T03:29:31;5.80;99.90
23267;DHT22;11802;53.160;8.214;2023-02-01T03:32:00;5.80;99.90
23267;DHT22;11802;53.160;8.214;2023-02-01T03:34:25;5.70;99.90
23267;DHT22;11802;53.160;8.214;2023-02-01T03:36:57;5.70;99.90
23267;DHT22;11802;53.160;8.214;2023-02-01T03:39:34;5.70;99.90
23267;DHT22;11802;53.160;8.214;2023-02-01T03:42:13;5.70;99.90
23267;DHT22;11802;53.160;8.214;2023-02-01T03:44:51;5.70;99.90
23267;DHT22;11802;53.160;8.214;2023-02-01T03:47:24;5.70;99.90
23267;DHT22;11802;53.160;8.214;2023-02-01T03:49:55;5.60;99.90
23267;DHT22;11802;53.160;8.214;2023-02-01T03:52:30;5.60;99.90
23267;DHT22;11802;53.160;8.214;2023-02-01T03:54:57;5.60;99.90
23267;DHT22;11802;53.160;8.214;2023-02-01T03:57:28;5.60;99.90
23267;DHT22;11802;53.160;8.214;2023-02-01T04:00:07;5.60;99.90
23267;DHT22;11802;53.160;8.214;2023-02-01T04:02:34;5.60;99.90
23267;DHT22;11802;53.160;8.214;2023-02-01T04:04:59;5.60;99.90
23267;DHT22;11802;53.160;8.214;2023-02-01T04:07:25;5.60;99.90
23267;DHT22;11802;53.160;8.214;2023-02-01T04:09:50;5.70;99.90
23267;DHT22;11802;53.160;8.214;2023-02-01T04:12:16;5.70;99.90
23267;DHT22;11802;53.160;8.214;2023-02-01T04:14:42;5.70;99.90
23267;DHT22;11802;53.160;8.214;2023-02-01T04:17:08;5.60;99.90
23267;DHT22;11802;53.160;8.214;2023-02-01T04:19:33;5.60;99.90
23267;DHT22;11802;53.160;8.214;2023-02-01T04:21:59;5.70;99.90
23267;DHT22;11802;53.160;8.214;2023-02-01T04:24:24;5.70;99.90
23267;DHT22;11802;53.160;8.214;2023-02-01T04:26:50;5.70;99.90
23267;DHT22;11802;53.160;8.214;2023-02-01T04:29:15;5.70;99.90
23267;DHT22;11802;53.160;8.214;2023-02-01T04:31:41;5.70;99.90
23267;DHT22;11802;53.160;8.214;2023-02-01T04:34:07;5.70;99.90
23267;DHT22;11802;53.160;8.214;2023-02-01T04:36:32;5.80;99.90
23267;DHT22;11802;53.160;8.214;2023-02-01T04:38:58;5.80;99.90
23267;DHT22;11802;53.160;8.214;2023-02-01T04:41:23;5.80;99.90
23267;DHT22;11802;53.160;8.214;2023-02-01T04:43:50;5.80;99.90
23267;DHT22;11802;53.160;8.214;2023-02-01T04:46:18;5.80;99.90
23267;DHT22;11802;53.160;8.214;2023-02-01T04:48:43;5.80;99.90
23267;DHT22;11802;53.160;8.214;2023-02-01T04:51:09;5.80;99.90
23267;DHT22;11802;53.160;8.214;2023-02-01T04:53:35;5.80;99.90
23267;DHT22;11802;53.160;8.214;2023-02-01T04:56:00;5.80;99.90
23267;DHT22;11802;53.160;8.214;2023-02-01T04:58:26;5.80;99.90
23267;DHT22;11802;53.160;8.214;2023-02-01T05:00:51;5.80;99.90
23267;DHT22;11802;53.160;8.214;2023-02-01T05:03:18;5.80;99.90
23267;DHT22;11802;53.160;8.214;2023-02-01T05:05:43;5.80;99.90
23267;DHT22;11802;53.160;8.214;2023-02-01T05:08:09;5.70;99.90
23267;DHT22;11802;53.160;8.214;2023-02-01T05:10:34;5.80;99.90
23267;DHT22;11802;53.160;8.214;2023-02-01T05:13:00;5.80;99.90
23267;DHT22;11802;53.160;8.214;2023-02-01T05:15:44;5.70;99.90
23267;DHT22;11802;53.160;8.214;2023-02-01T05:18:11;5.70;99.90
23267;DHT22;11802;53.160;8.214;2023-02-01T05:20:37;5.70;99.90
23267;DHT22;11802;53.160;8.214;2023-02-01T05:23:02;5.70;99.90
23267;DHT22;11802;53.160;8.214;2023-02-01T05:25:28;5.70;99.90
23267;DHT22;11802;53.160;8.214;2023-02-01T05:27:53;5.70;99.90
23267;DHT22;11802;53.160;8.214;2023-02-01T05:30:19;5.70;99.90
23267;DHT22;11802;53.160;8.214;2023-02-01T05:32:45;5.60;99.90
23267;DHT22;11802;53.160;8.214;2023-02-01T05:35:10;5.60;99.90
23267;DHT22;11802;53.160;8.214;2023-02-01T05:37:36;5.60;99.90
23267;DHT22;11802;53.160;8.214;2023-02-01T05:40:01;5.70;99.90
23267;DHT22;11802;53.160;8.214;2023-02-01T05:42:27;5.70;99.90
23267;DHT22;11802;53.160;8.214;2023-02-01T05:44:52;5.70;99.90
23267;DHT22;11802;53.160;8.214;2023-02-01T05:47:18;5.70;99.90
23267;DHT22;11802;53.160;8.214;2023-02-01T05:49:43;5.70;99.90
23267;DHT22;11802;53.160;8.214;2023-02-01T05:52:09;5.80;99.90
23267;DHT22;11802;53.160;8.214;2023-02-01T05:54:34;5.80;99.90
23267;DHT22;11802;53.160;8.214;2023-02-01T05:57:00;5.90;99.90
23267;DHT22;11802;53.160;8.214;2023-02-01T05:59:25;5.90;99.90
23267;DHT22;11802;53.160;8.214;2023-02-01T06:01:51;5.90;99.90
23267;DHT22;11802;53.160;8.214;2023-02-01T06:04:16;5.90;99.90
23267;DHT22;11802;53.160;8.214;2023-02-01T06:06:42;5.90;99.90
23267;DHT22;11802;53.160;8.214;2023-02-01T06:09:07;5.90;99.90
23267;DHT22;11802;53.160;8.214;2023-02-01T06:11:33;5.90;99.90
23267;DHT22;11802;53.160;8.214;2023-02-01T06:13:59;5.80;99.90
23267;DHT22;11802;53.160;8.214;2023-02-01T06:16:24;5.80;99.90
23267;DHT22;11802;53.160;8.214;2023-02-01T06:18:50;5.70;99.90
23267;DHT22;11802;53.160;8.214;2023-02-01T06:21:15;5.60;99.90
23267;DHT22;11802;53.160;8.214;2023-02-01T06:23:53;5.60;99.90
23267;DHT22;11802;53.160;8.214;2023-02-01T06:26:19;5.50;99.90
23267;DHT22;11802;53.160;8.214;2023-02-01T06:28:45;5.50;99.90
23267;DHT22;11802;53.160;8.214;2023-02-01T06:31:10;5.60;99.90
23267;DHT22;11802;53.160;8.214;2023-02-01T06:33:37;5.60;99.90
23267;DHT22;11802;53.160;8.214;2023-02-01T06:36:05;5.70;99.90
23267;DHT22;11802;53.160;8.214;2023-02-01T06:38:32;5.70;99.90
23267;DHT22;11802;53.160;8.214;2023-02-01T06:41:00;5.80;99.90
23267;DHT22;11802;53.160;8.214;2023-02-01T06:43:27;5.80;99.90
23267;DHT22;11802;53.160;8.214;2023-02-01T06:45:58;5.90;99.90
23267;DHT22;11802;53.160;8.214;2023-02-01T06:48:24;5.90;99.90
23267;DHT22;11802;53.160;8.214;2023-02-01T06:50:49;6.00;99.90
23267;DHT22;11802;53.160;8.214;2023-02-01T06:53:15;6.10;99.90
23267;DHT22;11802;53.160;8.214;2023-02-01T06:55:40;6.10;99.90
23267;DHT22;11802;53.160;8.214;2023-02-01T06:58:06;6.10;99.90
23267;DHT22;11802;53.160;8.214;2023-02-01T07:00:35;6.10;99.90
23267;DHT22;11802;53.160;8.214;2023-02-01T07:03:01;6.10;99.90
23267;DHT22;11802;53.160;8.214;2023-02-01T07:05:27;6.00;99.90
23267;DHT22;11802;53.160;8.214;2023-02-01T07:07:52;6.00;99.90
23267;DHT22;11802;53.160;8.214;2023-02-01T07:10:18;6.00;99.90
23267;DHT22;11802;53.160;8.214;2023-02-01T07:12:44;5.90;99.90
23267;DHT22;11802;53.160;8.214;2023-02-01T07:15:10;5.80;99.90
23267;DHT22;11802;53.160;8.214;2023-02-01T07:17:35;5.90;99.90
23267;DHT22;11802;53.160;8.214;2023-02-01T07:20:01;5.80;99.90
23267;DHT22;11802;53.160;8.214;2023-02-01T07:22:27;5.80;99.90
23267;DHT22;11802;53.160;8.214;2023-02-01T07:24:52;5.70;99.90
23267;DHT22;11802;53.160;8.214;2023-02-01T07:27:18;5.70;99.90
23267;DHT22;11802;53.160;8.214;2023-02-01T07:29:45;5.80;99.90
23267;DHT22;11802;53.160;8.214;2023-02-01T07:32:10;5.90;99.90
23267;DHT22;11802;53.160;8.214;2023-02-01T07:34:38;5.90;99.90
23267;DHT22;11802;53.160;8.214;2023-02-01T07:37:04;5.90;99.90
23267;DHT22;11802;53.160;8.214;2023-02-01T07:39:30;5.90;99.90
23267;DHT22;11802;53.160;8.214;2023-02-01T07:41:57;5.90;99.90
23267;DHT22;11802;53.160;8.214;2023-02-01T07:44:22;5.90;99.90
23267;DHT22;11802;53.160;8.214;2023-02-01T07:46:49;5.90;99.90
23267;DHT22;11802;53.160;8.214;2023-02-01T07:49:14;5.90;99.90
23267;DHT22;11802;53.160;8.214;2023-02-01T07:51:40;5.90;99.90
23267;DHT22;11802;53.160;8.214;2023-02-01T07:54:06;6.00;99.90
23267;DHT22;11802;53.160;8.214;2023-02-01T07:56:31;6.10;99.90
23267;DHT22;11802;53.160;8.214;2023-02-01T07:58:57;6.20;99.90
23267;DHT22;11802;53.160;8.214;2023-02-01T08:01:25;6.20;99.90
23267;DHT22;11802;53.160;8.214;2023-02-01T08:03:58;6.30;99.90
23267;DHT22;11802;53.160;8.214;2023-02-01T08:06:25;6.30;99.90
23267;DHT22;11802;53.160;8.214;2023-02-01T08:08:52;6.30;99.90
23267;DHT22;11802;53.160;8.214;2023-02-01T08:11:19;6.30;99.90
23267;DHT22;11802;53.160;8.214;2023-02-01T08:13:45;6.30;99.90
23267;DHT22;11802;53.160;8.214;2023-02-01T08:16:15;6.40;99.90
23267;DHT22;11802;53.160;8.214;2023-02-01T08:18:41;6.50;99.90
23267;DHT22;11802;53.160;8.214;2023-02-01T08:21:12;6.70;99.90
23267;DHT22;11802;53.160;8.214;2023-02-01T08:23:40;6.90;99.90
23267;DHT22;11802;53.160;8.214;2023-02-01T08:26:11;6.90;99.90
23267;DHT22;11802;53.160;8.214;2023-02-01T08:28:39;6.90;99.90
23267;DHT22;11802;53.160;8.214;2023-02-01T08:31:09;6.80;99.90
23267;DHT22;11802;53.160;8.214;2023-02-01T08:33:36;6.70;99.90
23267;DHT22;11802;53.160;8.214;2023-02-01T08:36:05;6.70;99.90
23267;DHT22;11802;53.160;8.214;2023-02-01T08:38:31;6.70;99.90
23267;DHT22;11802;53.160;8.214;2023-02-01T08:41:04;6.70;99.90
23267;DHT22;11802;53.160;8.214;2023-02-01T08:43:32;6.80;99.90
23267;DHT22;11802;53.160;8.214;2023-02-01T08:45:58;6.80;99.90
23267;DHT22;11802;53.160;8.214;2023-02-01T08:48:24;6.80;99.90
23267;DHT22;11802;53.160;8.214;2023-02-01T08:50:49;6.90;99.90
23267;DHT22;11802;53.160;8.214;2023-02-01T08:53:15;6.90;99.90
23267;DHT22;11802;53.160;8.214;2023-02-01T08:55:41;6.90;99.90
23267;DHT22;11802;53.160;8.214;2023-02-01T08:58:06;6.90;99.90
23267;DHT22;11802;53.160;8.214;2023-02-01T09:00:32;6.90;99.90
23267;DHT22;11802;53.160;8.214;2023-02-01T09:02:57;6.90;99.90
23267;DHT22;11802;53.160;8.214;2023-02-01T09:05:24;6.90;99.90
23267;DHT22;11802;53.160;8.214;2023-02-01T09:07:52;6.90;99.90
23267;DHT22;11802;53.160;8.214;2023-02-01T09:10:17;6.90;99.90
23267;DHT22;11802;53.160;8.214;2023-02-01T09:12:43;6.90;99.90
23267;DHT22;11802;53.160;8.214;2023-02-01T09:15:09;7.00;99.90
23267;DHT22;11802;53.160;8.214;2023-02-01T09:17:34;7.00;99.90
23267;DHT22;11802;53.160;8.214;2023-02-01T09:20:00;6.90;99.90
23267;DHT22;11802;53.160;8.214;2023-02-01T09:22:26;6.90;99.90
23267;DHT22;11802;53.160;8.214;2023-02-01T09:24:52;7.00;99.90
23267;DHT22;11802;53.160;8.214;2023-02-01T09:27:18;7.00;99.90
23267;DHT22;11802;53.160;8.214;2023-02-01T09:29:43;7.00;99.90
23267;DHT22;11802;53.160;8.214;2023-02-01T09:32:09;7.10;99.90
23267;DHT22;11802;53.160;8.214;2023-02-01T09:34:35;7.10;99.90
23267;DHT22;11802;53.160;8.214;2023-02-01T09:37:01;7.20;99.90
23267;DHT22;11802;53.160;8.214;2023-02-01T09:39:27;7.10;99.90
23267;DHT22;11802;53.160;8.214;2023-02-01T09:42:03;7.10;99.90
23267;DHT22;11802;53.160;8.214;2023-02-01T09:47:29;7.10;99.90
23267;DHT22;11802;53.160;8.214;2023-02-01T09:50:06;7.10;99.90
23267;DHT22;11802;53.160;8.214;2023-02-01T09:52:40;7.10;99.90
23267;DHT22;11802;53.160;8.214;2023-02-01T09:55:15;7.00;99.90
23267;DHT22;11802;53.160;8.214;2023-02-01T09:57:51;7.00;99.90
23267;DHT22;11802;53.160;8.214;2023-02-01T10:00:24;7.10;99.90
23267;DHT22;11802;53.160;8.214;2023-02-01T10:02:51;7.00;99.90
23267;DHT22;11802;53.160;8.214;2023-02-01T10:11:04;6.90;99.90
23267;DHT22;11802;53.160;8.214;2023-02-01T10:13:53;6.90;99.90
23267;DHT22;11802;53.160;8.214;2023-02-01T10:16:34;6.80;99.90
23267;DHT22;11802;53.160;8.214;2023-02-01T10:19:31;6.80;99.90
23267;DHT22;11802;53.160;8.214;2023-02-01T10:22:06;6.80;99.90
23267;DHT22;11802;53.160;8.214;2023-02-01T10:24:47;6.90;99.90
23267;DHT22;11802;53.160;8.214;2023-02-01T10:27:29;6.90;99.90
23267;DHT22;11802;53.160;8.214;2023-02-01T10:30:00;6.80;99.90
23267;DHT22;11802;53.160;8.214;2023-02-01T10:32:33;6.80;99.90
23267;DHT22;11802;53.160;8.214;2023-02-01T10:35:15;6.90;99.90
23267;DHT22;11802;53.160;8.214;2023-02-01T10:37:42;6.90;99.90
23267;DHT22;11802;53.160;8.214;2023-02-01T10:42:43;7.00;99.90
23267;DHT22;11802;53.160;8.214;2023-02-01T10:45:19;7.00;99.90
23267;DHT22;11802;53.160;8.214;2023-02-01T10:47:47;6.90;99.90
23267;DHT22;11802;53.160;8.214;2023-02-01T10:50:24;6.90;99.90
23267;DHT22;11802;53.160;8.214;2023-02-01T10:53:21;6.90;99.90
23267;DHT22;11802;53.160;8.214;2023-02-01T10:55:51;6.80;99.90
23267;DHT22;11802;53.160;8.214;2023-02-01T10:58:27;6.70;99.90
23267;DHT22;11802;53.160;8.214;2023-02-01T11:00:56;6.70;99.90
23267;DHT22;11802;53.160;8.214;2023-02-01T11:03:51;6.60;99.90
23267;DHT22;11802;53.160;8.214;2023-02-01T11:06:24;6.70;99.90
23267;DHT22;11802;53.160;8.214;2023-02-01T11:08:57;6.70;99.90
23267;DHT22;11802;53.160;8.214;2023-02-01T11:11:23;6.80;99.90
23267;DHT22;11802;53.160;8.214;2023-02-01T11:13:56;6.70;99.90
23267;DHT22;11802;53.160;8.214;2023-02-01T11:16:30;6.70;99.90
23267;DHT22;11802;53.160;8.214;2023-02-01T11:18:55;6.60;99.90
23267;DHT22;11802;53.160;8.214;2023-02-01T11:21:23;6.50;99.90
23267;DHT22;11802;53.160;8.214;2023-02-01T11:23:48;6.50;99.90
23267;DHT22;11802;53.160;8.214;2023-02-01T11:28:53;6.20;99.90
23267;DHT22;11802;53.160;8.214;2023-02-01T11:31:19;6.30;99.90
23267;DHT22;11802;53.160;8.214;2023-02-01T11:33:50;6.20;99.90
23267;DHT22;11802;53.160;8.214;2023-02-01T11:36:20;6.20;99.90
23267;DHT22;11802;53.160;8.214;2023-02-01T11:39:36;6.20;99.90
23267;DHT22;11802;53.160;8.214;2023-02-01T11:41:44;6.30;99.90
23267;DHT22;11802;53.160;8.214;2023-02-01T11:44:33;6.30;99.90
23267;DHT22;11802;53.160;8.214;2023-02-01T11:47:22;6.30;99.90
23267;DHT22;11802;53.160;8.214;2023-02-01T11:49:51;6.20;99.90
23267;DHT22;11802;53.160;8.214;2023-02-01T12:01:09;6.30;99.90
23267;DHT22;11802;53.160;8.214;2023-02-01T12:06:38;5.50;99.90
23267;DHT22;11802;53.160;8.214;2023-02-01T12:09:32;5.10;99.90
23267;DHT22;11802;53.160;8.214;2023-02-01T12:14:51;4.60;99.90
23267;DHT22;11802;53.160;8.214;2023-02-01T12:23:25;4.70;99.90
23267;DHT22;11802;53.160;8.214;2023-02-01T12:26:01;4.80;99.90
23267;DHT22;11802;53.160;8.214;2023-02-01T12:31:32;5.20;99.90
23267;DHT22;11802;53.160;8.214;2023-02-01T12:37:09;5.40;99.90
23267;DHT22;11802;53.160;8.214;2023-02-01T12:39:48;5.60;99.90
23267;DHT22;11802;53.160;8.214;2023-02-01T12:42:26;5.70;99.90
23267;DHT22;11802;53.160;8.214;2023-02-01T12:45:26;5.70;99.90
23267;DHT22;11802;53.160;8.214;2023-02-01T12:48:25;5.80;99.90
23267;DHT22;11802;53.160;8.214;2023-02-01T12:50:55;5.90;99.90
23267;DHT22;11802;53.160;8.214;2023-02-01T12:53:32;5.90;99.90
23267;DHT22;11802;53.160;8.214;2023-02-01T12:56:02;5.80;99.90
23267;DHT22;11802;53.160;8.214;2023-02-01T12:58:45;5.80;99.90
23267;DHT22;11802;53.160;8.214;2023-02-01T13:01:23;5.70;99.90
23267;DHT22;11802;53.160;8.214;2023-02-01T13:04:05;5.70;99.90
23267;DHT22;11802;53.160;8.214;2023-02-01T13:06:40;5.60;99.90
23267;DHT22;11802;53.160;8.214;2023-02-01T13:09:31;5.60;99.90
23267;DHT22;11802;53.160;8.214;2023-02-01T13:12:03;5.60;99.90
23267;DHT22;11802;53.160;8.214;2023-02-01T13:15:05;5.60;99.90
23267;DHT22;11802;53.160;8.214;2023-02-01T13:17:30;5.80;99.90
23267;DHT22;11802;53.160;8.214;2023-02-01T13:22:37;6.30;99.90
23267;DHT22;11802;53.160;8.214;2023-02-01T13:25:26;6.50;99.90
23267;DHT22;11802;53.160;8.214;2023-02-01T13:27:56;6.70;99.90
23267;DHT22;11802;53.160;8.214;2023-02-01T13:30:37;6.70;99.90
23267;DHT22;11802;53.160;8.214;2023-02-01T13:33:36;6.70;99.90
23267;DHT22;11802;53.160;8.214;2023-02-01T13:39:02;6.70;99.90
23267;DHT22;11802;53.160;8.214;2023-02-01T13:42:18;6.60;99.90
23267;DHT22;11802;53.160;8.214;2023-02-01T13:44:46;6.50;99.90
23267;DHT22;11802;53.160;8.214;2023-02-01T13:47:38;6.40;99.90
23267;DHT22;11802;53.160;8.214;2023-02-01T13:55:40;6.20;99.90
23267;DHT22;11802;53.160;8.214;2023-02-01T14:00:39;6.30;99.90
23267;DHT22;11802;53.160;8.214;2023-02-01T14:10:51;6.40;99.90
23267;DHT22;11802;53.160;8.214;2023-02-01T14:13:38;6.50;99.90
23267;DHT22;11802;53.160;8.214;2023-02-01T14:23:54;6.90;99.90
23267;DHT22;11802;53.160;8.214;2023-02-01T14:26:27;6.90;99.90
23267;DHT22;11802;53.160;8.214;2023-02-01T14:32:03;6.90;99.90
23267;DHT22;11802;53.160;8.214;2023-02-01T14:40:04;7.20;99.90
23267;DHT22;11802;53.160;8.214;2023-02-01T14:42:48;7.40;99.90
23267;DHT22;11802;53.160;8.214;2023-02-01T14:53:01;7.90;99.90
23267;DHT22;11802;53.160;8.214;2023-02-01T15:01:17;7.80;99.90
23267;DHT22;11802;53.160;8.214;2023-02-01T15:03:45;7.70;99.90
23267;DHT22;11802;53.160;8.214;2023-02-01T15:06:27;7.50;99.90
23267;DHT22;11802;53.160;8.214;2023-02-01T15:15:22;7.20;99.90
23267;DHT22;11802;53.160;8.214;2023-02-01T15:17:54;7.10;99.90
23267;DHT22;11802;53.160;8.214;2023-02-01T15:20:25;7.10;99.90
23267;DHT22;11802;53.160;8.214;2023-02-01T15:22:58;7.10;99.90
23267;DHT22;11802;53.160;8.214;2023-02-01T15:25:31;7.10;99.90
23267;DHT22;11802;53.160;8.214;2023-02-01T15:27:57;7.20;99.90
23267;DHT22;11802;53.160;8.214;2023-02-01T15:30:24;7.20;99.90
23267;DHT22;11802;53.160;8.214;2023-02-01T15:32:51;7.20;99.90
23267;DHT22;11802;53.160;8.214;2023-02-01T15:35:43;7.20;99.90
23267;DHT22;11802;53.160;8.214;2023-02-01T15:41:06;7.30;99.90
23267;DHT22;11802;53.160;8.214;2023-02-01T15:43:47;7.30;99.90
23267;DHT22;11802;53.160;8.214;2023-02-01T15:46:16;7.30;99.90
23267;DHT22;11802;53.160;8.214;2023-02-01T15:49:02;7.30;99.90
23267;DHT22;11802;53.160;8.214;2023-02-01T15:51:30;7.20;99.90
23267;DHT22;11802;53.160;8.214;2023-02-01T15:54:04;7.00;99.90
23267;DHT22;11802;53.160;8.214;2023-02-01T15:56:35;6.40;99.90
23267;DHT22;11802;53.160;8.214;2023-02-01T15:59:04;5.90;99.90
23267;DHT22;11802;53.160;8.214;2023-02-01T16:01:37;5.50;99.90
23267;DHT22;11802;53.160;8.214;2023-02-01T16:04:20;5.30;99.90
23267;DHT22;11802;53.160;8.214;2023-02-01T16:06:49;5.20;99.90
23267;DHT22;11802;53.160;8.214;2023-02-01T16:09:17;5.10;99.90
23267;DHT22;11802;53.160;8.214;2023-02-01T16:12:00;5.00;99.90
23267;DHT22;11802;53.160;8.214;2023-02-01T16:14:26;5.00;99.90
23267;DHT22;11802;53.160;8.214;2023-02-01T16:16:54;4.90;99.90
23267;DHT22;11802;53.160;8.214;2023-02-01T16:19:20;4.90;99.90
23267;DHT22;11802;53.160;8.214;2023-02-01T16:21:48;4.90;99.90
23267;DHT22;11802;53.160;8.214;2023-02-01T16:24:14;4.90;99.90
23267;DHT22;11802;53.160;8.214;2023-02-01T16:26:39;4.90;99.90
23267;DHT22;11802;53.160;8.214;2023-02-01T16:29:05;4.80;99.90
23267;DHT22;11802;53.160;8.214;2023-02-01T16:31:36;4.80;99.90
23267;DHT22;11802;53.160;8.214;2023-02-01T16:34:03;4.90;99.90
23267;DHT22;11802;53.160;8.214;2023-02-01T16:36:29;4.90;99.90
23267;DHT22;11802;53.160;8.214;2023-02-01T16:38:55;5.00;99.90
23267;DHT22;11802;53.160;8.214;2023-02-01T16:41:22;5.00;99.90
23267;DHT22;11802;53.160;8.214;2023-02-01T16:43:53;5.00;99.90
23267;DHT22;11802;53.160;8.214;2023-02-01T16:46:21;5.10;99.90
23267;DHT22;11802;53.160;8.214;2023-02-01T16:48:57;5.20;99.90
23267;DHT22;11802;53.160;8.214;2023-02-01T16:51:25;5.20;99.90
23267;DHT22;11802;53.160;8.214;2023-02-01T16:53:52;5.20;99.90
23267;DHT22;11802;53.160;8.214;2023-02-01T16:56:20;5.20;99.90
23267;DHT22;11802;53.160;8.214;2023-02-01T16:58:47;5.20;99.90
23267;DHT22;11802;53.160;8.214;2023-02-01T17:01:14;5.20;99.90
23267;DHT22;11802;53.160;8.214;2023-02-01T17:03:41;5.30;99.90
23267;DHT22;11802;53.160;8.214;2023-02-01T17:06:10;5.40;99.90
23267;DHT22;11802;53.160;8.214;2023-02-01T17:08:39;5.40;99.90
23267;DHT22;11802;53.160;8.214;2023-02-01T17:11:06;5.40;99.90
23267;DHT22;11802;53.160;8.214;2023-02-01T17:13:32;5.40;99.90
23267;DHT22;11802;53.160;8.214;2023-02-01T17:16:00;5.40;99.90
23267;DHT22;11802;53.160;8.214;2023-02-01T17:18:28;5.40;99.90
23267;DHT22;11802;53.160;8.214;2023-02-01T17:20:57;5.40;99.90
23267;DHT22;11802;53.160;8.214;2023-02-01T17:23:23;5.40;99.90
23267;DHT22;11802;53.160;8.214;2023-02-01T17:25:49;5.30;99.90
23267;DHT22;11802;53.160;8.214;2023-02-01T17:28:15;5.30;99.90
23267;DHT22;11802;53.160;8.214;2023-02-01T17:30:41;5.40;99.90
23267;DHT22;11802;53.160;8.214;2023-02-01T17:33:26;5.40;99.90
23267;DHT22;11802;53.160;8.214;2023-02-01T17:35:54;5.50;99.90
23267;DHT22;11802;53.160;8.214;2023-02-01T17:38:20;5.50;99.90
23267;DHT22;11802;53.160;8.214;2023-02-01T17:40:45;5.40;99.90
23267;DHT22;11802;53.160;8.214;2023-02-01T17:43:16;5.40;99.90
23267;DHT22;11802;53.160;8.214;2023-02-01T17:45:47;5.50;99.90
23267;DHT22;11802;53.160;8.214;2023-02-01T17:48:17;5.50;99.90
23267;DHT22;11802;53.160;8.214;2023-02-01T17:50:44;5.50;99.90
23267;DHT22;11802;53.160;8.214;2023-02-01T17:53:11;5.50;99.90
23267;DHT22;11802;53.160;8.214;2023-02-01T17:55:41;5.50;99.90
23267;DHT22;11802;53.160;8.214;2023-02-01T17:58:12;5.60;99.90
23267;DHT22;11802;53.160;8.214;2023-02-01T18:00:38;5.60;99.90
23267;DHT22;11802;53.160;8.214;2023-02-01T18:03:04;5.60;99.90
23267;DHT22;11802;53.160;8.214;2023-02-01T18:05:41;5.70;99.90